Cardiff, Maryland
Current Conditions -  °F | °C
As of 2:55 PM on Wednesday 26 Nov 2014 (Local Time) from KAPG Reporting Station
Light Rain Light Rain  
Wind Chill: 31°   Ceiling: 700
Heat Index: 36°   Visibility: 1mi
Dew Point: 36°   Wind: 6mph
Humidity: 100%   Direction: 10°N
Pressure: 29.86"   Gusts: NA
Location:  39.7064°N, 76.3071°W
Report Text: KAPG 261955Z 01005KT 1SM -RA BR BKN007 OVC012 02/02 A2986 RMK SNE20
Loading
Personal Weather Stations






























Interactive Weather Map New forecast layout! Learn more

10-Day Weather Forecast

Advertisements
Track Severe Weather on mobile